Startpagina
METAR-TAF:

METAR-TAF

Vliegvelden :

Aeroporto Internacional de Brasília

Brasilia, Federaal District, Brazilië

breedte: 15-52S, lengte: 047-56W, hoogte: 1061 m

Actueel weer

Dit bericht is 27 minuten geleden gemaakt, om 02:00 UTC
Wind 2 kt uit variabele richting
Temperatuur 21°C
Vochtigheid 53%
Druk 1022 hPa
Zicht 10 km of meer
geen wolken onder 1500 m en geen cumulonimbus

METAR: SBBR 170200Z VRB02KT CAVOK 21/11 Q1022

Tijdstip: 23:27 (02:27 UTC)

Verwachting

Dit bericht is 4 uur en het 27 minuten geleden gemaakt, om 22:00 UTC
Verwachting geldig van 17 om 00 UTC tot 17 om 24 UTC
Wind 5 kt uit het noordnoordwesten
Zicht 10 km of meer
geen wolken onder 1500 m en geen cumulonimbus
Wijzigt naar
van 17 om 13 UTC tot 17 om 15 UTC
Wind 9 kt uit het noordnoordwesten
Wijzigt naar
van 17 om 20 UTC tot 17 om 22 UTC
Wind 5 kt uit het noordnoordwesten

TAF: SBBR 162200Z 1700/1724 34005KT CAVOK TN13/1707Z TX26/1717Z BECMG 1713/1715 34009KT BECMG 1720/1722 33005KT RMK PFM

Waarnemingen en weersverwachtingen van meer dan 4000 vliegvelden (METAR en TAF).

De beschikbare stations zijn de gele en rode punten op de kaart.

Ga met uw muis naar het station om de naam te zien.

Klik dan om waarnemingen en weersverwachtingen te zien.

kaart wijzigen: klik op de groene knoppen met een zwart kruis om in te zoomen, op de groene knop met een streepje om uit te zoomen of op de groene pijlen voor aangrenzende kaarten.


METAR-TAF: